sensor_id;sensor_type;location;lat;lon;timestamp;P1;durP1;ratioP1;P2;durP2;ratioP2
29504;SDS011;16452;54.174;12.092;2022-08-19T00:01:36;31.27;;;26.55;;
29504;SDS011;16452;54.174;12.092;2022-08-19T00:04:05;28.75;;;25.88;;
29504;SDS011;16452;54.174;12.092;2022-08-19T00:06:34;28.35;;;25.30;;
29504;SDS011;16452;54.174;12.092;2022-08-19T00:09:03;31.27;;;27.63;;
29504;SDS011;16452;54.174;12.092;2022-08-19T00:11:32;31.15;;;26.65;;
29504;SDS011;16452;54.174;12.092;2022-08-19T00:14:03;43.05;;;30.85;;
29504;SDS011;16452;54.174;12.092;2022-08-19T00:16:32;37.45;;;31.13;;
29504;SDS011;16452;54.174;12.092;2022-08-19T00:18:58;39.17;;;31.33;;
29504;SDS011;16452;54.174;12.092;2022-08-19T00:21:24;38.88;;;31.45;;
29504;SDS011;16452;54.174;12.092;2022-08-19T00:23:55;42.58;;;32.15;;
29504;SDS011;16452;54.174;12.092;2022-08-19T00:26:26;40.30;;;32.70;;
29504;SDS011;16452;54.174;12.092;2022-08-19T00:28:52;39.05;;;32.17;;
29504;SDS011;16452;54.174;12.092;2022-08-19T00:31:19;37.80;;;30.08;;
29504;SDS011;16452;54.174;12.092;2022-08-19T00:33:45;43.75;;;30.73;;
29504;SDS011;16452;54.174;12.092;2022-08-19T00:36:12;36.35;;;29.77;;
29504;SDS011;16452;54.174;12.092;2022-08-19T00:38:39;37.00;;;29.23;;
29504;SDS011;16452;54.174;12.092;2022-08-19T00:41:08;43.88;;;31.33;;
29504;SDS011;16452;54.174;12.092;2022-08-19T00:43:39;42.28;;;30.30;;
29504;SDS011;16452;54.174;12.092;2022-08-19T00:46:06;39.15;;;29.85;;
29504;SDS011;16452;54.174;12.092;2022-08-19T00:48:33;40.72;;;30.70;;
29504;SDS011;16452;54.174;12.092;2022-08-19T00:51:01;41.50;;;32.70;;
29504;SDS011;16452;54.174;12.092;2022-08-19T00:53:29;43.70;;;34.78;;
29504;SDS011;16452;54.174;12.092;2022-08-19T00:55:57;44.47;;;33.97;;
29504;SDS011;16452;54.174;12.092;2022-08-19T00:58:30;43.88;;;34.50;;
29504;SDS011;16452;54.174;12.092;2022-08-19T01:01:00;42.38;;;34.30;;
29504;SDS011;16452;54.174;12.092;2022-08-19T01:03:27;43.33;;;34.47;;
29504;SDS011;16452;54.174;12.092;2022-08-19T01:05:53;40.67;;;32.25;;
29504;SDS011;16452;54.174;12.092;2022-08-19T01:08:19;40.42;;;33.10;;
29504;SDS011;16452;54.174;12.092;2022-08-19T01:10:47;42.55;;;31.45;;
29504;SDS011;16452;54.174;12.092;2022-08-19T01:13:20;42.85;;;32.50;;
29504;SDS011;16452;54.174;12.092;2022-08-19T01:15:52;39.42;;;32.00;;
29504;SDS011;16452;54.174;12.092;2022-08-19T01:18:26;41.63;;;32.17;;
29504;SDS011;16452;54.174;12.092;2022-08-19T01:20:54;44.40;;;34.10;;
29504;SDS011;16452;54.174;12.092;2022-08-19T01:23:24;46.22;;;33.70;;
29504;SDS011;16452;54.174;12.092;2022-08-19T01:26:07;45.17;;;34.53;;
29504;SDS011;16452;54.174;12.092;2022-08-19T01:28:40;44.55;;;32.95;;
29504;SDS011;16452;54.174;12.092;2022-08-19T01:31:09;42.42;;;34.40;;
29504;SDS011;16452;54.174;12.092;2022-08-19T01:33:39;47.67;;;34.88;;
29504;SDS011;16452;54.174;12.092;2022-08-19T01:36:09;45.63;;;37.47;;
29504;SDS011;16452;54.174;12.092;2022-08-19T01:38:51;50.33;;;38.58;;
29504;SDS011;16452;54.174;12.092;2022-08-19T01:41:18;48.30;;;40.05;;
29504;SDS011;16452;54.174;12.092;2022-08-19T01:43:44;51.25;;;39.00;;
29504;SDS011;16452;54.174;12.092;2022-08-19T01:46:10;47.08;;;37.70;;
29504;SDS011;16452;54.174;12.092;2022-08-19T01:48:39;48.22;;;34.40;;
29504;SDS011;16452;54.174;12.092;2022-08-19T01:51:08;47.50;;;35.30;;
29504;SDS011;16452;54.174;12.092;2022-08-19T01:53:34;44.03;;;34.63;;
29504;SDS011;16452;54.174;12.092;2022-08-19T01:56:02;38.22;;;30.70;;
29504;SDS011;16452;54.174;12.092;2022-08-19T01:58:32;39.80;;;31.98;;
29504;SDS011;16452;54.174;12.092;2022-08-19T02:01:04;38.58;;;30.00;;
29504;SDS011;16452;54.174;12.092;2022-08-19T02:03:30;34.17;;;27.95;;
29504;SDS011;16452;54.174;12.092;2022-08-19T02:05:57;33.10;;;27.38;;
29504;SDS011;16452;54.174;12.092;2022-08-19T02:08:25;29.70;;;26.17;;
29504;SDS011;16452;54.174;12.092;2022-08-19T02:10:52;39.38;;;28.20;;
29504;SDS011;16452;54.174;12.092;2022-08-19T02:13:18;35.78;;;28.17;;
29504;SDS011;16452;54.174;12.092;2022-08-19T02:15:44;33.88;;;28.60;;
29504;SDS011;16452;54.174;12.092;2022-08-19T02:18:10;38.97;;;31.17;;
29504;SDS011;16452;54.174;12.092;2022-08-19T02:20:37;41.55;;;31.67;;
29504;SDS011;16452;54.174;12.092;2022-08-19T02:23:05;43.40;;;34.40;;
29504;SDS011;16452;54.174;12.092;2022-08-19T02:25:31;39.38;;;33.13;;
29504;SDS011;16452;54.174;12.092;2022-08-19T02:27:57;45.92;;;36.33;;
29504;SDS011;16452;54.174;12.092;2022-08-19T02:30:24;41.70;;;33.63;;
29504;SDS011;16452;54.174;12.092;2022-08-19T02:32:51;43.95;;;36.47;;
29504;SDS011;16452;54.174;12.092;2022-08-19T02:35:18;42.65;;;35.15;;
29504;SDS011;16452;54.174;12.092;2022-08-19T02:37:44;41.08;;;33.83;;
29504;SDS011;16452;54.174;12.092;2022-08-19T02:40:29;43.40;;;34.55;;
29504;SDS011;16452;54.174;12.092;2022-08-19T02:42:59;46.22;;;35.97;;
29504;SDS011;16452;54.174;12.092;2022-08-19T02:45:32;42.97;;;34.08;;
29504;SDS011;16452;54.174;12.092;2022-08-19T02:48:00;41.67;;;34.13;;
29504;SDS011;16452;54.174;12.092;2022-08-19T02:50:27;43.45;;;34.80;;
29504;SDS011;16452;54.174;12.092;2022-08-19T02:52:53;44.38;;;34.53;;
29504;SDS011;16452;54.174;12.092;2022-08-19T02:55:19;43.63;;;34.30;;
29504;SDS011;16452;54.174;12.092;2022-08-19T02:57:45;42.20;;;34.78;;
29504;SDS011;16452;54.174;12.092;2022-08-19T03:00:12;44.58;;;33.60;;
29504;SDS011;16452;54.174;12.092;2022-08-19T03:02:39;42.55;;;32.83;;
29504;SDS011;16452;54.174;12.092;2022-08-19T03:05:06;42.92;;;32.75;;
29504;SDS011;16452;54.174;12.092;2022-08-19T03:07:35;43.20;;;33.38;;
29504;SDS011;16452;54.174;12.092;2022-08-19T03:10:02;46.50;;;33.97;;
29504;SDS011;16452;54.174;12.092;2022-08-19T03:12:29;46.50;;;32.33;;
29504;SDS011;16452;54.174;12.092;2022-08-19T03:14:55;42.83;;;31.92;;
29504;SDS011;16452;54.174;12.092;2022-08-19T03:17:21;48.40;;;33.88;;
29504;SDS011;16452;54.174;12.092;2022-08-19T03:19:47;44.15;;;30.52;;
29504;SDS011;16452;54.174;12.092;2022-08-19T03:22:13;45.00;;;31.70;;
29504;SDS011;16452;54.174;12.092;2022-08-19T03:24:39;42.15;;;30.15;;
29504;SDS011;16452;54.174;12.092;2022-08-19T03:27:05;50.35;;;31.45;;
29504;SDS011;16452;54.174;12.092;2022-08-19T03:29:31;45.67;;;31.00;;
29504;SDS011;16452;54.174;12.092;2022-08-19T03:31:58;47.65;;;30.80;;
29504;SDS011;16452;54.174;12.092;2022-08-19T03:34:30;42.53;;;29.60;;
29504;SDS011;16452;54.174;12.092;2022-08-19T03:36:59;51.30;;;31.98;;
29504;SDS011;16452;54.174;12.092;2022-08-19T03:39:35;42.08;;;31.55;;
29504;SDS011;16452;54.174;12.092;2022-08-19T03:42:03;41.30;;;30.33;;
29504;SDS011;16452;54.174;12.092;2022-08-19T03:44:30;40.95;;;30.52;;
29504;SDS011;16452;54.174;12.092;2022-08-19T03:46:57;47.83;;;31.58;;
29504;SDS011;16452;54.174;12.092;2022-08-19T03:49:28;41.10;;;29.77;;
29504;SDS011;16452;54.174;12.092;2022-08-19T03:51:57;42.22;;;30.83;;
29504;SDS011;16452;54.174;12.092;2022-08-19T03:54:25;45.15;;;31.17;;
29504;SDS011;16452;54.174;12.092;2022-08-19T03:56:55;39.60;;;29.75;;
29504;SDS011;16452;54.174;12.092;2022-08-19T03:59:26;47.90;;;30.27;;
29504;SDS011;16452;54.174;12.092;2022-08-19T04:01:56;48.50;;;31.13;;
29504;SDS011;16452;54.174;12.092;2022-08-19T04:04:25;43.67;;;31.48;;
29504;SDS011;16452;54.174;12.092;2022-08-19T04:06:53;43.55;;;31.52;;
29504;SDS011;16452;54.174;12.092;2022-08-19T04:09:19;47.35;;;32.00;;
29504;SDS011;16452;54.174;12.092;2022-08-19T04:11:47;46.70;;;31.10;;
29504;SDS011;16452;54.174;12.092;2022-08-19T04:14:22;53.10;;;33.83;;
29504;SDS011;16452;54.174;12.092;2022-08-19T04:16:54;49.15;;;31.67;;
29504;SDS011;16452;54.174;12.092;2022-08-19T04:19:20;54.25;;;33.53;;
29504;SDS011;16452;54.174;12.092;2022-08-19T04:21:47;54.25;;;33.97;;
29504;SDS011;16452;54.174;12.092;2022-08-19T04:24:16;60.28;;;34.80;;
29504;SDS011;16452;54.174;12.092;2022-08-19T04:26:43;62.03;;;33.47;;
29504;SDS011;16452;54.174;12.092;2022-08-19T04:29:11;56.75;;;33.25;;
29504;SDS011;16452;54.174;12.092;2022-08-19T04:31:42;50.35;;;32.15;;
29504;SDS011;16452;54.174;12.092;2022-08-19T04:34:10;54.38;;;32.53;;
29504;SDS011;16452;54.174;12.092;2022-08-19T04:36:39;56.70;;;31.98;;
29504;SDS011;16452;54.174;12.092;2022-08-19T04:39:09;61.75;;;30.83;;
29504;SDS011;16452;54.174;12.092;2022-08-19T04:41:41;56.97;;;31.88;;
29504;SDS011;16452;54.174;12.092;2022-08-19T04:44:26;61.85;;;33.08;;
29504;SDS011;16452;54.174;12.092;2022-08-19T04:46:55;56.13;;;33.58;;
29504;SDS011;16452;54.174;12.092;2022-08-19T04:49:21;62.50;;;33.75;;
29504;SDS011;16452;54.174;12.092;2022-08-19T04:51:49;69.90;;;35.78;;
29504;SDS011;16452;54.174;12.092;2022-08-19T04:54:19;73.70;;;36.85;;
29504;SDS011;16452;54.174;12.092;2022-08-19T04:56:47;64.72;;;33.60;;
29504;SDS011;16452;54.174;12.092;2022-08-19T04:59:15;70.28;;;37.15;;
29504;SDS011;16452;54.174;12.092;2022-08-19T05:01:43;71.03;;;37.17;;
29504;SDS011;16452;54.174;12.092;2022-08-19T05:04:13;74.00;;;38.17;;
29504;SDS011;16452;54.174;12.092;2022-08-19T05:06:39;77.07;;;40.35;;
29504;SDS011;16452;54.174;12.092;2022-08-19T05:09:05;73.85;;;39.13;;
29504;SDS011;16452;54.174;12.092;2022-08-19T05:11:32;64.60;;;39.00;;
29504;SDS011;16452;54.174;12.092;2022-08-19T05:14:03;63.25;;;37.90;;
29504;SDS011;16452;54.174;12.092;2022-08-19T05:16:30;75.85;;;41.88;;
29504;SDS011;16452;54.174;12.092;2022-08-19T05:18:56;67.93;;;38.17;;
29504;SDS011;16452;54.174;12.092;2022-08-19T05:21:41;73.15;;;38.38;;
29504;SDS011;16452;54.174;12.092;2022-08-19T05:24:26;69.38;;;38.83;;
29504;SDS011;16452;54.174;12.092;2022-08-19T05:26:53;70.00;;;38.17;;
29504;SDS011;16452;54.174;12.092;2022-08-19T05:29:22;73.22;;;37.55;;
29504;SDS011;16452;54.174;12.092;2022-08-19T05:31:51;71.38;;;37.25;;
29504;SDS011;16452;54.174;12.092;2022-08-19T05:34:19;66.25;;;38.00;;
29504;SDS011;16452;54.174;12.092;2022-08-19T05:36:47;78.80;;;38.63;;
29504;SDS011;16452;54.174;12.092;2022-08-19T05:39:17;73.68;;;39.65;;
29504;SDS011;16452;54.174;12.092;2022-08-19T05:41:46;77.50;;;39.70;;
29504;SDS011;16452;54.174;12.092;2022-08-19T05:44:18;69.10;;;38.05;;
29504;SDS011;16452;54.174;12.092;2022-08-19T05:46:45;70.60;;;37.97;;
29504;SDS011;16452;54.174;12.092;2022-08-19T05:49:18;69.07;;;37.50;;
29504;SDS011;16452;54.174;12.092;2022-08-19T05:51:46;66.43;;;38.65;;
29504;SDS011;16452;54.174;12.092;2022-08-19T05:54:12;65.95;;;37.05;;
29504;SDS011;16452;54.174;12.092;2022-08-19T05:56:38;71.60;;;40.30;;
29504;SDS011;16452;54.174;12.092;2022-08-19T05:59:06;71.70;;;38.63;;
29504;SDS011;16452;54.174;12.092;2022-08-19T06:01:39;73.97;;;39.80;;
29504;SDS011;16452;54.174;12.092;2022-08-19T06:04:08;63.75;;;38.03;;
29504;SDS011;16452;54.174;12.092;2022-08-19T06:06:34;73.43;;;38.97;;
29504;SDS011;16452;54.174;12.092;2022-08-19T06:09:01;71.75;;;38.47;;
29504;SDS011;16452;54.174;12.092;2022-08-19T06:14:14;65.85;;;38.20;;
29504;SDS011;16452;54.174;12.092;2022-08-19T06:16:43;77.00;;;40.10;;
29504;SDS011;16452;54.174;12.092;2022-08-19T06:19:12;72.82;;;38.63;;
29504;SDS011;16452;54.174;12.092;2022-08-19T06:21:41;69.80;;;36.63;;
29504;SDS011;16452;54.174;12.092;2022-08-19T06:24:11;70.95;;;36.78;;
29504;SDS011;16452;54.174;12.092;2022-08-19T06:26:41;72.97;;;39.55;;
29504;SDS011;16452;54.174;12.092;2022-08-19T06:29:09;66.25;;;38.17;;
29504;SDS011;16452;54.174;12.092;2022-08-19T06:31:37;62.47;;;36.22;;
29504;SDS011;16452;54.174;12.092;2022-08-19T06:34:08;71.97;;;37.60;;
29504;SDS011;16452;54.174;12.092;2022-08-19T06:36:36;71.32;;;38.60;;
29504;SDS011;16452;54.174;12.092;2022-08-19T06:39:08;68.30;;;36.88;;
29504;SDS011;16452;54.174;12.092;2022-08-19T06:41:38;64.40;;;36.58;;
29504;SDS011;16452;54.174;12.092;2022-08-19T06:44:08;64.85;;;37.92;;
29504;SDS011;16452;54.174;12.092;2022-08-19T06:46:35;66.50;;;38.35;;
29504;SDS011;16452;54.174;12.092;2022-08-19T06:49:02;68.93;;;38.00;;
29504;SDS011;16452;54.174;12.092;2022-08-19T06:51:28;67.20;;;38.58;;
29504;SDS011;16452;54.174;12.092;2022-08-19T06:53:56;68.05;;;38.80;;
29504;SDS011;16452;54.174;12.092;2022-08-19T06:56:23;68.70;;;38.22;;
29504;SDS011;16452;54.174;12.092;2022-08-19T06:58:58;62.72;;;37.22;;
29504;SDS011;16452;54.174;12.092;2022-08-19T07:01:26;69.93;;;37.10;;
29504;SDS011;16452;54.174;12.092;2022-08-19T07:03:52;67.05;;;38.38;;
29504;SDS011;16452;54.174;12.092;2022-08-19T07:06:18;65.38;;;35.88;;
29504;SDS011;16452;54.174;12.092;2022-08-19T07:08:45;73.25;;;36.13;;
29504;SDS011;16452;54.174;12.092;2022-08-19T07:11:13;69.15;;;36.63;;
29504;SDS011;16452;54.174;12.092;2022-08-19T07:13:45;82.88;;;37.85;;
29504;SDS011;16452;54.174;12.092;2022-08-19T07:16:14;71.68;;;38.13;;
29504;SDS011;16452;54.174;12.092;2022-08-19T07:18:47;80.22;;;37.88;;
29504;SDS011;16452;54.174;12.092;2022-08-19T07:21:20;85.68;;;40.85;;
29504;SDS011;16452;54.174;12.092;2022-08-19T07:23:49;75.50;;;38.63;;
29504;SDS011;16452;54.174;12.092;2022-08-19T07:26:20;75.45;;;39.63;;
29504;SDS011;16452;54.174;12.092;2022-08-19T07:28:55;70.13;;;37.97;;
29504;SDS011;16452;54.174;12.092;2022-08-19T07:31:24;71.25;;;38.00;;
29504;SDS011;16452;54.174;12.092;2022-08-19T07:33:52;75.65;;;38.78;;
29504;SDS011;16452;54.174;12.092;2022-08-19T07:36:22;64.38;;;35.83;;
29504;SDS011;16452;54.174;12.092;2022-08-19T07:38:57;56.20;;;32.47;;
29504;SDS011;16452;54.174;12.092;2022-08-19T07:41:27;57.78;;;31.35;;
29504;SDS011;16452;54.174;12.092;2022-08-19T07:43:56;70.32;;;35.55;;
29504;SDS011;16452;54.174;12.092;2022-08-19T07:46:28;70.97;;;41.33;;
29504;SDS011;16452;54.174;12.092;2022-08-19T07:48:58;61.42;;;40.40;;
29504;SDS011;16452;54.174;12.092;2022-08-19T07:51:25;64.72;;;41.03;;
29504;SDS011;16452;54.174;12.092;2022-08-19T07:53:53;60.38;;;40.50;;
29504;SDS011;16452;54.174;12.092;2022-08-19T07:56:19;60.42;;;41.05;;
29504;SDS011;16452;54.174;12.092;2022-08-19T07:58:47;56.47;;;42.47;;
29504;SDS011;16452;54.174;12.092;2022-08-19T08:01:20;56.10;;;41.67;;
29504;SDS011;16452;54.174;12.092;2022-08-19T08:03:49;55.45;;;41.05;;
29504;SDS011;16452;54.174;12.092;2022-08-19T08:06:35;61.65;;;42.00;;
29504;SDS011;16452;54.174;12.092;2022-08-19T08:09:26;55.90;;;41.40;;
29504;SDS011;16452;54.174;12.092;2022-08-19T08:11:59;58.72;;;42.47;;
29504;SDS011;16452;54.174;12.092;2022-08-19T08:14:35;60.92;;;44.75;;
29504;SDS011;16452;54.174;12.092;2022-08-19T08:17:06;57.03;;;42.05;;
29504;SDS011;16452;54.174;12.092;2022-08-19T08:19:33;59.05;;;43.15;;
29504;SDS011;16452;54.174;12.092;2022-08-19T08:21:59;61.78;;;42.08;;
29504;SDS011;16452;54.174;12.092;2022-08-19T08:24:27;60.88;;;41.70;;
29504;SDS011;16452;54.174;12.092;2022-08-19T08:26:55;56.17;;;40.90;;
29504;SDS011;16452;54.174;12.092;2022-08-19T08:29:24;55.38;;;40.88;;
29504;SDS011;16452;54.174;12.092;2022-08-19T08:31:54;56.75;;;40.97;;
29504;SDS011;16452;54.174;12.092;2022-08-19T08:34:20;54.28;;;40.13;;
29504;SDS011;16452;54.174;12.092;2022-08-19T08:36:46;56.47;;;40.65;;
29504;SDS011;16452;54.174;12.092;2022-08-19T08:39:16;56.35;;;38.33;;
29504;SDS011;16452;54.174;12.092;2022-08-19T08:44:43;57.20;;;41.15;;
29504;SDS011;16452;54.174;12.092;2022-08-19T08:47:28;80.50;;;53.97;;
29504;SDS011;16452;54.174;12.092;2022-08-19T08:50:03;58.50;;;40.78;;
29504;SDS011;16452;54.174;12.092;2022-08-19T08:52:34;65.35;;;43.25;;
29504;SDS011;16452;54.174;12.092;2022-08-19T08:55:08;56.92;;;40.08;;
29504;SDS011;16452;54.174;12.092;2022-08-19T08:57:49;57.00;;;39.22;;
29504;SDS011;16452;54.174;12.092;2022-08-19T09:00:36;57.05;;;41.10;;
29504;SDS011;16452;54.174;12.092;2022-08-19T09:03:24;55.15;;;38.50;;
29504;SDS011;16452;54.174;12.092;2022-08-19T09:06:00;55.95;;;38.05;;
29504;SDS011;16452;54.174;12.092;2022-08-19T09:08:37;48.45;;;36.90;;
29504;SDS011;16452;54.174;12.092;2022-08-19T09:11:19;52.30;;;37.60;;
29504;SDS011;16452;54.174;12.092;2022-08-19T09:14:05;56.20;;;38.35;;
29504;SDS011;16452;54.174;12.092;2022-08-19T09:17:06;56.95;;;37.90;;
29504;SDS011;16452;54.174;12.092;2022-08-19T09:19:51;54.63;;;38.30;;
29504;SDS011;16452;54.174;12.092;2022-08-19T09:22:33;47.63;;;35.42;;
29504;SDS011;16452;54.174;12.092;2022-08-19T09:25:00;54.20;;;38.65;;
29504;SDS011;16452;54.174;12.092;2022-08-19T09:27:36;50.40;;;37.47;;
29504;SDS011;16452;54.174;12.092;2022-08-19T09:30:03;58.08;;;39.67;;
29504;SDS011;16452;54.174;12.092;2022-08-19T09:32:32;51.03;;;34.90;;
29504;SDS011;16452;54.174;12.092;2022-08-19T09:34:58;49.00;;;36.78;;
29504;SDS011;16452;54.174;12.092;2022-08-19T09:37:25;51.60;;;37.03;;
29504;SDS011;16452;54.174;12.092;2022-08-19T09:39:52;50.72;;;36.63;;
29504;SDS011;16452;54.174;12.092;2022-08-19T09:42:18;55.05;;;38.75;;
29504;SDS011;16452;54.174;12.092;2022-08-19T09:44:45;52.95;;;38.60;;
29504;SDS011;16452;54.174;12.092;2022-08-19T09:47:12;50.65;;;37.92;;
29504;SDS011;16452;54.174;12.092;2022-08-19T09:49:39;53.17;;;38.90;;
29504;SDS011;16452;54.174;12.092;2022-08-19T09:52:06;47.10;;;33.95;;
29504;SDS011;16452;54.174;12.092;2022-08-19T09:54:35;42.38;;;31.55;;
29504;SDS011;16452;54.174;12.092;2022-08-19T09:57:01;42.97;;;31.95;;
29504;SDS011;16452;54.174;12.092;2022-08-19T09:59:27;49.92;;;37.30;;
29504;SDS011;16452;54.174;12.092;2022-08-19T10:01:54;46.53;;;35.75;;
29504;SDS011;16452;54.174;12.092;2022-08-19T10:04:22;54.13;;;38.25;;
29504;SDS011;16452;54.174;12.092;2022-08-19T10:06:48;49.08;;;37.08;;
29504;SDS011;16452;54.174;12.092;2022-08-19T10:09:16;49.53;;;37.78;;
29504;SDS011;16452;54.174;12.092;2022-08-19T10:11:43;53.33;;;38.58;;
29504;SDS011;16452;54.174;12.092;2022-08-19T10:14:13;47.95;;;36.05;;
29504;SDS011;16452;54.174;12.092;2022-08-19T10:16:40;52.28;;;38.45;;
29504;SDS011;16452;54.174;12.092;2022-08-19T10:19:07;50.97;;;35.28;;
29504;SDS011;16452;54.174;12.092;2022-08-19T10:21:33;52.15;;;36.65;;
29504;SDS011;16452;54.174;12.092;2022-08-19T10:24:02;49.75;;;35.67;;
29504;SDS011;16452;54.174;12.092;2022-08-19T10:26:31;51.00;;;36.63;;
29504;SDS011;16452;54.174;12.092;2022-08-19T10:29:03;51.70;;;38.63;;
29504;SDS011;16452;54.174;12.092;2022-08-19T10:31:31;48.25;;;35.20;;
29504;SDS011;16452;54.174;12.092;2022-08-19T10:33:59;55.60;;;37.85;;
29504;SDS011;16452;54.174;12.092;2022-08-19T10:36:30;55.85;;;36.45;;
29504;SDS011;16452;54.174;12.092;2022-08-19T10:39:02;57.00;;;38.60;;
29504;SDS011;16452;54.174;12.092;2022-08-19T10:41:33;46.42;;;35.05;;
29504;SDS011;16452;54.174;12.092;2022-08-19T10:44:04;53.15;;;36.22;;
29504;SDS011;16452;54.174;12.092;2022-08-19T10:46:34;54.45;;;36.13;;
29504;SDS011;16452;54.174;12.092;2022-08-19T10:49:06;52.88;;;38.33;;
29504;SDS011;16452;54.174;12.092;2022-08-19T10:51:37;54.17;;;36.92;;
29504;SDS011;16452;54.174;12.092;2022-08-19T10:54:23;46.92;;;34.70;;
29504;SDS011;16452;54.174;12.092;2022-08-19T10:57:09;42.38;;;32.47;;
29504;SDS011;16452;54.174;12.092;2022-08-19T10:59:36;40.72;;;30.45;;
29504;SDS011;16452;54.174;12.092;2022-08-19T11:02:03;49.95;;;36.35;;
29504;SDS011;16452;54.174;12.092;2022-08-19T11:04:34;44.65;;;35.10;;
29504;SDS011;16452;54.174;12.092;2022-08-19T11:07:02;47.83;;;34.25;;
29504;SDS011;16452;54.174;12.092;2022-08-19T11:09:29;47.95;;;35.65;;
29504;SDS011;16452;54.174;12.092;2022-08-19T11:11:56;44.50;;;33.20;;
29504;SDS011;16452;54.174;12.092;2022-08-19T11:14:22;48.63;;;35.28;;
29504;SDS011;16452;54.174;12.092;2022-08-19T11:16:50;46.65;;;35.20;;
29504;SDS011;16452;54.174;12.092;2022-08-19T11:19:20;45.33;;;34.65;;
29504;SDS011;16452;54.174;12.092;2022-08-19T11:21:48;43.92;;;33.13;;
29504;SDS011;16452;54.174;12.092;2022-08-19T11:24:23;49.58;;;39.70;;
29504;SDS011;16452;54.174;12.092;2022-08-19T11:26:51;40.63;;;32.72;;
29504;SDS011;16452;54.174;12.092;2022-08-19T11:29:24;45.90;;;35.67;;
29504;SDS011;16452;54.174;12.092;2022-08-19T11:31:52;44.08;;;34.08;;
29504;SDS011;16452;54.174;12.092;2022-08-19T11:34:20;42.28;;;32.47;;
29504;SDS011;16452;54.174;12.092;2022-08-19T11:36:49;41.08;;;32.05;;
29504;SDS011;16452;54.174;12.092;2022-08-19T11:39:17;42.42;;;31.83;;
29504;SDS011;16452;54.174;12.092;2022-08-19T11:41:46;35.88;;;30.42;;
29504;SDS011;16452;54.174;12.092;2022-08-19T11:44:12;41.67;;;32.45;;
29504;SDS011;16452;54.174;12.092;2022-08-19T11:46:39;41.75;;;32.25;;
29504;SDS011;16452;54.174;12.092;2022-08-19T11:49:11;38.45;;;29.60;;
29504;SDS011;16452;54.174;12.092;2022-08-19T11:51:43;38.58;;;31.25;;
29504;SDS011;16452;54.174;12.092;2022-08-19T11:54:10;41.45;;;31.73;;
29504;SDS011;16452;54.174;12.092;2022-08-19T11:56:38;36.95;;;30.20;;
29504;SDS011;16452;54.174;12.092;2022-08-19T11:59:04;39.42;;;30.40;;
29504;SDS011;16452;54.174;12.092;2022-08-19T12:01:33;41.17;;;31.70;;
29504;SDS011;16452;54.174;12.092;2022-08-19T12:03:59;40.22;;;31.85;;
29504;SDS011;16452;54.174;12.092;2022-08-19T12:06:28;43.17;;;32.22;;
29504;SDS011;16452;54.174;12.092;2022-08-19T12:09:00;41.95;;;30.85;;
29504;SDS011;16452;54.174;12.092;2022-08-19T12:11:30;41.45;;;31.35;;
29504;SDS011;16452;54.174;12.092;2022-08-19T12:13:57;40.53;;;31.10;;
29504;SDS011;16452;54.174;12.092;2022-08-19T12:16:25;41.95;;;31.80;;
29504;SDS011;16452;54.174;12.092;2022-08-19T12:18:53;41.97;;;31.50;;
29504;SDS011;16452;54.174;12.092;2022-08-19T12:21:22;48.83;;;36.92;;
29504;SDS011;16452;54.174;12.092;2022-08-19T12:23:53;47.17;;;33.20;;
29504;SDS011;16452;54.174;12.092;2022-08-19T12:26:21;44.42;;;33.80;;
29504;SDS011;16452;54.174;12.092;2022-08-19T12:28:47;45.00;;;34.33;;
29504;SDS011;16452;54.174;12.092;2022-08-19T12:31:13;51.80;;;35.15;;
29504;SDS011;16452;54.174;12.092;2022-08-19T12:33:41;50.85;;;36.10;;
29504;SDS011;16452;54.174;12.092;2022-08-19T12:36:08;46.92;;;33.83;;
29504;SDS011;16452;54.174;12.092;2022-08-19T12:38:37;47.10;;;33.95;;
29504;SDS011;16452;54.174;12.092;2022-08-19T12:41:04;45.53;;;35.55;;
29504;SDS011;16452;54.174;12.092;2022-08-19T12:43:35;39.42;;;30.80;;
29504;SDS011;16452;54.174;12.092;2022-08-19T12:46:03;38.60;;;30.08;;
29504;SDS011;16452;54.174;12.092;2022-08-19T12:48:31;45.42;;;34.33;;
29504;SDS011;16452;54.174;12.092;2022-08-19T12:50:58;47.13;;;35.88;;
29504;SDS011;16452;54.174;12.092;2022-08-19T12:53:24;46.92;;;34.78;;
29504;SDS011;16452;54.174;12.092;2022-08-19T12:55:57;45.10;;;34.13;;
29504;SDS011;16452;54.174;12.092;2022-08-19T12:58:24;49.55;;;36.28;;
29504;SDS011;16452;54.174;12.092;2022-08-19T13:00:51;47.05;;;34.05;;
29504;SDS011;16452;54.174;12.092;2022-08-19T13:03:18;43.50;;;34.03;;
29504;SDS011;16452;54.174;12.092;2022-08-19T13:05:44;46.47;;;35.22;;
29504;SDS011;16452;54.174;12.092;2022-08-19T13:08:09;45.58;;;34.50;;
29504;SDS011;16452;54.174;12.092;2022-08-19T13:10:36;44.03;;;33.08;;
29504;SDS011;16452;54.174;12.092;2022-08-19T13:13:06;48.35;;;34.40;;
29504;SDS011;16452;54.174;12.092;2022-08-19T13:15:35;48.83;;;36.78;;
29504;SDS011;16452;54.174;12.092;2022-08-19T13:18:09;42.67;;;33.25;;
29504;SDS011;16452;54.174;12.092;2022-08-19T13:20:38;46.30;;;35.88;;
29504;SDS011;16452;54.174;12.092;2022-08-19T13:23:05;46.53;;;36.00;;
29504;SDS011;16452;54.174;12.092;2022-08-19T13:25:37;65.50;;;52.33;;
29504;SDS011;16452;54.174;12.092;2022-08-19T13:28:03;44.10;;;33.33;;
29504;SDS011;16452;54.174;12.092;2022-08-19T13:30:31;41.75;;;34.08;;
29504;SDS011;16452;54.174;12.092;2022-08-19T13:33:16;46.05;;;34.92;;
29504;SDS011;16452;54.174;12.092;2022-08-19T13:35:51;42.70;;;34.30;;
29504;SDS011;16452;54.174;12.092;2022-08-19T13:38:24;40.03;;;31.92;;
29504;SDS011;16452;54.174;12.092;2022-08-19T13:40:51;41.38;;;31.52;;
29504;SDS011;16452;54.174;12.092;2022-08-19T13:43:19;41.83;;;31.80;;
29504;SDS011;16452;54.174;12.092;2022-08-19T13:45:47;41.70;;;33.20;;
29504;SDS011;16452;54.174;12.092;2022-08-19T13:48:14;42.63;;;33.58;;
29504;SDS011;16452;54.174;12.092;2022-08-19T13:50:41;42.00;;;33.08;;
29504;SDS011;16452;54.174;12.092;2022-08-19T13:53:10;44.25;;;33.50;;
29504;SDS011;16452;54.174;12.092;2022-08-19T13:55:37;43.13;;;33.13;;
29504;SDS011;16452;54.174;12.092;2022-08-19T13:58:04;44.88;;;34.60;;
29504;SDS011;16452;54.174;12.092;2022-08-19T14:00:34;46.10;;;32.85;;
29504;SDS011;16452;54.174;12.092;2022-08-19T14:03:03;47.90;;;33.42;;
29504;SDS011;16452;54.174;12.092;2022-08-19T14:05:29;46.05;;;31.13;;
29504;SDS011;16452;54.174;12.092;2022-08-19T14:07:56;49.42;;;35.78;;
29504;SDS011;16452;54.174;12.092;2022-08-19T14:10:24;45.03;;;32.85;;
29504;SDS011;16452;54.174;12.092;2022-08-19T14:12:54;47.10;;;32.65;;
29504;SDS011;16452;54.174;12.092;2022-08-19T14:15:23;47.08;;;33.90;;
29504;SDS011;16452;54.174;12.092;2022-08-19T14:17:49;45.35;;;35.22;;
29504;SDS011;16452;54.174;12.092;2022-08-19T14:20:16;41.83;;;31.63;;
29504;SDS011;16452;54.174;12.092;2022-08-19T14:22:42;43.10;;;32.20;;
29504;SDS011;16452;54.174;12.092;2022-08-19T14:25:10;51.70;;;34.15;;
29504;SDS011;16452;54.174;12.092;2022-08-19T14:27:40;41.38;;;31.98;;